Time;durP1;ratioP1;P1;durP2;ratioP2;P2;SDS_P1;SDS_P2;PMS_P1;PMS_P2;Temp;Humidity;BMP_temperature;BMP_pressure;BME280_temperature;BME280_humidity;BME280_pressure;Samples;Min_cycle;Max_cycle;Signal;HPM_P1;HPM_P2
2022/11/21 00:01:53;;;;;;;;;2.67;1.00;;;;;19.54;41.04;100649.84;5059134;28;57432;-56
2022/11/21 00:04:18;;;;;;;;;1.75;1.75;;;;;19.54;41.13;100647.22;5059223;28;52702;-55
2022/11/21 00:06:44;;;;;;;;;1.33;1.33;;;;;19.53;41.24;100652.56;5059234;28;63012;-56
2022/11/21 00:09:09;;;;;;;;;3.00;2.00;;;;;19.53;40.81;100652.56;5059661;28;45411;-55
2022/11/21 00:11:34;;;;;;;;;3.00;2.00;;;;;19.51;40.98;100652.66;5059798;28;45564;-56
2022/11/21 00:14:00;;;;;;;;;1.00;1.00;;;;;19.52;40.75;100640.34;5059240;28;47076;-56
2022/11/21 00:16:25;;;;;;;;;4.25;1.00;;;;;19.52;41.12;100640.34;5059586;28;45428;-56
2022/11/21 00:18:50;;;;;;;;;3.25;1.00;;;;;19.49;41.08;100637.88;5059564;28;45436;-56
2022/11/21 00:21:18;;;;;;;;;1.00;1.00;;;;;19.51;40.72;100646.53;5059728;28;45923;-57
2022/11/21 00:23:44;;;;;;;;;1.50;1.50;;;;;19.50;40.68;100642.22;5059657;28;45340;-56
2022/11/21 00:26:11;;;;;;;;;2.00;2.00;;;;;19.50;40.76;100639.59;5059874;28;45219;-56
2022/11/21 00:28:37;;;;;;;;;2.00;1.00;;;;;19.49;41.20;100625.59;5060000;28;45426;-56
2022/11/21 00:31:04;;;;;;;;;1.00;1.00;;;;;19.48;40.67;100618.66;5063699;28;45377;-56
2022/11/21 00:33:30;;;;;;;;;1.50;1.50;;;;;19.47;41.14;100615.16;5076506;28;46974;-56
2022/11/21 00:35:55;;;;;;;;;2.00;1.50;;;;;19.47;40.69;100612.53;5078648;28;45236;-55
2022/11/21 00:38:23;;;;;;;;;3.00;1.00;;;;;19.44;41.04;100596.94;5079152;28;45386;-56
2022/11/21 00:40:49;;;;;;;;;0.00;0.00;;;;;19.45;41.27;100596.03;5062157;28;45874;-56
2022/11/21 00:43:14;;;;;;;;;1.00;1.00;;;;;19.45;41.20;100590.75;5060994;28;46434;-55
2022/11/21 00:45:40;;;;;;;;;1.50;1.00;;;;;19.42;40.78;100580.41;5066445;28;45180;-55
2022/11/21 00:48:05;;;;;;;;;1.00;1.00;;;;;19.42;40.81;100575.16;5083009;28;44704;-55
2022/11/21 00:50:31;;;;;;;;;2.00;1.25;;;;;19.44;40.72;100578.56;5083877;28;44781;-55
2022/11/21 00:52:57;;;;;;;;;1.00;1.00;;;;;19.44;40.76;100572.44;5084189;28;45197;-55
2022/11/21 00:55:23;;;;;;;;;1.75;1.75;;;;;19.41;41.09;100577.84;5061135;28;45321;-60
2022/11/21 00:57:49;;;;;;;;;3.00;1.00;;;;;19.44;40.98;100580.31;5059971;28;45492;-56
2022/11/21 01:00:15;;;;;;;;;1.25;1.25;;;;;19.40;41.34;100576.19;5059758;28;45351;-56
2022/11/21 01:02:40;;;;;;;;;1.00;1.00;;;;;19.41;40.90;100565.56;5058922;28;45354;-56
2022/11/21 01:05:06;;;;;;;;;2.33;1.00;;;;;19.41;41.01;100578.72;5057766;28;59981;-56
2022/11/21 01:07:31;;;;;;;;;3.00;1.25;;;;;19.41;41.13;100572.59;5058136;28;45376;-56
2022/11/21 01:09:57;;;;;;;;;1.00;1.00;;;;;19.39;40.75;100572.69;5058322;28;55324;-55
2022/11/21 01:12:23;;;;;;;;;1.50;0.25;;;;;19.39;41.15;100564.78;5057880;28;66153;-56
2022/11/21 01:14:48;;;;;;;;;1.25;1.25;;;;;19.38;40.72;100563.09;5057915;28;45712;-55
2022/11/21 01:17:14;;;;;;;;;2.00;2.00;;;;;19.38;40.77;100560.47;5057331;28;45236;-54
2022/11/21 01:19:39;;;;;;;;;4.50;1.00;;;;;19.37;40.65;100561.41;5058755;28;45534;-55
2022/11/21 01:22:05;;;;;;;;;1.00;1.00;;;;;19.34;41.23;100558.97;5058248;28;46277;-55
2022/11/21 01:24:30;;;;;;;;;1.50;1.50;;;;;19.35;41.17;100552.75;5057658;28;60112;-55
2022/11/21 01:26:55;;;;;;;;;1.25;1.25;;;;;19.33;40.85;100552.00;5058407;28;45299;-55
2022/11/21 01:29:21;;;;;;;;;3.25;1.00;;;;;19.35;40.97;100547.50;5058913;28;45320;-55
2022/11/21 01:31:46;;;;;;;;;1.50;1.50;;;;;19.32;40.81;100542.44;5058208;28;46078;-55
2022/11/21 01:34:13;;;;;;;;;2.75;2.00;;;;;19.34;40.94;100558.97;5058367;28;45892;-55
2022/11/21 01:36:39;;;;;;;;;1.00;1.00;;;;;19.34;40.97;100551.06;5058298;28;45445;-56
2022/11/21 01:39:06;;;;;;;;;3.00;1.75;;;;;19.32;41.08;100542.44;5058350;28;45364;-56
2022/11/21 01:41:34;;;;;;;;;2.00;2.00;;;;;19.32;40.79;100537.16;5057929;28;45552;-56
2022/11/21 01:44:15;;;;;;;;;2.25;1.25;;;;;19.33;41.12;100535.38;5058047;28;45246;-56
2022/11/21 01:46:40;;;;;;;;;1.00;1.00;;;;;19.30;41.14;100536.41;5058198;28;45390;-55
2022/11/21 01:49:22;;;;;;;;;1.00;1.00;;;;;19.30;40.93;100526.72;5058291;28;45646;-55
2022/11/21 01:52:12;;;;;;;;;2.25;1.25;;;;;19.30;41.15;100518.84;5058202;28;46391;-55
2022/11/21 01:54:43;;;;;;;;;2.75;1.00;;;;;19.30;41.13;100512.75;5056635;28;46171;-56
2022/11/21 01:57:13;;;;;;;;;1.50;1.25;;;;;19.30;41.02;100507.50;5058066;28;45449;-56
2022/11/21 01:59:53;;;;;;;;;3.75;2.25;;;;;19.28;41.06;100499.72;5058348;28;45311;-56
2022/11/21 02:02:24;;;;;;;;;2.00;1.25;;;;;19.27;40.85;100494.53;5059752;28;47018;-56
2022/11/21 02:04:52;;;;;;;;;1.75;1.75;;;;;19.27;41.24;100497.16;5058360;28;45830;-56
2022/11/21 02:07:21;;;;;;;;;3.00;1.00;;;;;19.26;41.09;100496.31;5058007;28;45228;-56
2022/11/21 02:09:51;;;;;;;;;1.00;1.00;;;;;19.28;41.23;100504.97;5058234;28;45300;-56
2022/11/21 02:12:30;;;;;;;;;1.00;1.00;;;;;19.27;41.20;100503.25;5058779;28;47298;-55
2022/11/21 02:14:57;;;;;;;;;1.00;1.00;;;;;19.28;40.87;100498.84;5059088;28;45363;-55
2022/11/21 02:17:25;;;;;;;;;1.75;1.25;;;;;19.27;41.16;100498.00;5066693;28;45295;-55
2022/11/21 02:19:59;;;;;;;;;3.00;1.00;;;;;19.27;40.74;100490.13;5075574;28;45224;-54
2022/11/21 02:22:36;;;;;;;;;2.00;2.00;;;;;19.26;41.36;100490.19;5077402;28;45222;-56
2022/11/21 02:25:16;;;;;;;;;2.50;1.00;;;;;19.26;40.82;100490.19;5060096;28;45709;-56
2022/11/21 02:27:42;;;;;;;;;2.25;1.00;;;;;19.26;40.84;100484.94;5059021;28;45423;-55
2022/11/21 02:30:09;;;;;;;;;2.00;1.00;;;;;19.25;41.22;100472.72;5067237;28;45603;-56
2022/11/21 02:32:38;;;;;;;;;0.75;0.75;;;;;19.25;41.31;100462.22;5075957;28;46422;-56
2022/11/21 02:35:05;;;;;;;;;2.50;1.00;;;;;19.25;40.79;100464.84;5080797;28;45030;-55
2022/11/21 02:37:32;;;;;;;;;1.00;1.00;;;;;19.23;40.63;100458.84;5079913;28;45475;-56
2022/11/21 02:40:02;;;;;;;;;2.25;1.00;;;;;19.24;41.18;100455.28;5084985;28;44819;-56
2022/11/21 02:42:33;;;;;;;;;2.75;1.00;;;;;19.24;41.18;100464.00;5081711;28;45160;-60
2022/11/21 02:45:20;;;;;;;;;2.00;2.00;;;;;19.23;41.13;100456.22;5081365;28;45175;-56
2022/11/21 02:47:49;;;;;;;;;2.00;1.00;;;;;19.20;41.05;100457.22;5082442;28;45141;-56
2022/11/21 02:50:29;;;;;;;;;1.00;1.00;;;;;19.20;41.18;100449.34;5083744;28;45326;-56
2022/11/21 02:52:55;;;;;;;;;1.25;1.00;;;;;19.21;41.21;100451.03;5079606;28;45141;-56
2022/11/21 02:55:21;;;;;;;;;2.00;1.50;;;;;19.22;41.08;100441.41;5074511;28;45867;-57
2022/11/21 02:57:47;;;;;;;;;1.00;1.00;;;;;19.21;40.92;100440.53;5062333;28;45370;-56
2022/11/21 03:00:13;;;;;;;;;2.00;1.00;;;;;19.20;40.74;100433.59;5076690;28;45285;-54
2022/11/21 03:02:38;;;;;;;;;3.00;2.00;;;;;19.18;41.00;100429.34;5081803;28;46327;-56
2022/11/21 03:05:06;;;;;;;;;2.50;1.00;;;;;19.20;41.31;100430.13;5081615;28;62647;-56
2022/11/21 03:07:32;;;;;;;;;2.50;1.00;;;;;19.16;40.88;100422.41;5082736;28;45469;-56
2022/11/21 03:09:57;;;;;;;;;4.50;1.25;;;;;19.20;41.05;100430.13;5083905;28;45292;-56
2022/11/21 03:12:23;;;;;;;;;5.25;1.00;;;;;19.19;41.10;100438.94;5066366;28;59522;-56
2022/11/21 03:14:48;;;;;;;;;2.00;1.00;;;;;19.14;41.00;100424.25;5056294;28;45386;-56
2022/11/21 03:17:14;;;;;;;;;2.00;1.00;;;;;19.17;40.82;100425.91;5057012;28;45658;-56
2022/11/21 03:19:39;;;;;;;;;1.00;1.00;;;;;19.17;41.09;100410.13;5057264;28;45529;-56
2022/11/21 03:22:04;;;;;;;;;2.25;1.00;;;;;19.16;41.35;100409.25;5056000;28;60950;-55
2022/11/21 03:24:30;;;;;;;;;2.00;1.00;;;;;19.17;40.85;100402.25;5056853;28;45196;-54
2022/11/21 03:26:55;;;;;;;;;2.25;1.00;;;;;19.18;41.05;100400.47;5057100;28;45249;-55
2022/11/21 03:29:20;;;;;;;;;2.00;2.00;;;;;19.16;40.70;100395.31;5055198;28;54383;-55
2022/11/21 03:31:46;;;;;;;;;1.33;1.33;;;;;19.15;41.39;100391.81;5055724;28;64409;-55
2022/11/21 03:34:11;;;;;;;;;1.00;1.00;;;;;19.16;40.87;100385.63;5055182;28;45222;-55
2022/11/21 03:36:36;;;;;;;;;2.00;2.00;;;;;19.15;40.82;100373.41;5056442;28;45351;-54
2022/11/21 03:39:02;;;;;;;;;1.50;1.00;;;;;19.16;41.21;100358.53;5056746;28;45442;-56
2022/11/21 03:41:30;;;;;;;;;2.00;2.00;;;;;19.15;41.00;100355.03;5056584;28;46350;-54
2022/11/21 03:44:04;;;;;;;;;2.25;1.00;;;;;19.13;41.24;100356.06;5056514;28;45308;-55
2022/11/21 03:46:32;;;;;;;;;2.00;2.00;;;;;19.14;40.95;100360.38;5056785;28;45423;-56
2022/11/21 03:48:58;;;;;;;;;1.50;0.25;;;;;19.13;40.98;100351.63;5074958;28;45411;-55
2022/11/21 03:51:23;;;;;;;;;2.25;1.25;;;;;19.14;41.04;100353.34;5079461;28;45228;-55
2022/11/21 03:53:49;;;;;;;;;1.00;1.00;;;;;19.12;41.18;100343.84;5057369;28;45328;-55
2022/11/21 03:56:15;;;;;;;;;1.50;1.50;;;;;19.12;40.77;100347.34;5056783;28;45586;-55
2022/11/21 03:58:42;;;;;;;;;3.25;1.00;;;;;19.11;40.99;100342.16;5057653;28;46085;-55
2022/11/21 04:01:07;;;;;;;;;3.00;1.00;;;;;19.09;40.93;100337.00;5071290;28;45330;-55
2022/11/21 04:03:33;;;;;;;;;1.75;1.75;;;;;19.11;40.92;100340.41;5083989;28;44698;-55
2022/11/21 04:05:59;;;;;;;;;2.50;1.00;;;;;19.11;41.26;100331.66;5081762;28;44626;-56
2022/11/21 04:08:25;;;;;;;;;3.00;1.75;;;;;19.10;41.20;100322.06;5062237;28;45580;-56
2022/11/21 04:10:52;;;;;;;;;3.75;1.25;;;;;19.08;40.97;100314.31;5077400;28;46352;-55
2022/11/21 04:13:18;;;;;;;;;2.00;2.00;;;;;19.08;40.90;100302.94;5078720;28;45291;-55
2022/11/21 04:15:44;;;;;;;;;1.00;1.00;;;;;19.09;41.25;100289.72;5066082;28;45272;-55
2022/11/21 04:18:10;;;;;;;;;3.00;2.00;;;;;19.09;41.05;100289.72;5075064;28;44795;-55
2022/11/21 04:20:36;;;;;;;;;1.50;1.00;;;;;19.08;41.21;100298.53;5067640;28;46150;-56
2022/11/21 04:23:01;;;;;;;;;3.00;2.00;;;;;19.07;41.11;100291.59;5056451;28;45235;-56
2022/11/21 04:25:26;;;;;;;;;1.00;1.00;;;;;19.08;41.27;100289.78;5056313;28;45453;-56
2022/11/21 04:27:56;;;;;;;;;1.25;1.00;;;;;19.05;41.44;100280.31;5056409;28;45275;-56
2022/11/21 04:30:21;;;;;;;;;2.00;2.00;;;;;19.05;40.90;100277.69;5055700;28;46512;-55
2022/11/21 04:32:49;;;;;;;;;3.00;1.00;;;;;19.06;41.04;100274.13;5055791;28;45451;-56
2022/11/21 04:35:14;;;;;;;;;2.00;2.00;;;;;19.06;40.88;100279.38;5055850;28;45291;-56
2022/11/21 04:37:39;;;;;;;;;3.50;2.25;;;;;19.06;41.17;100262.81;5055197;28;57090;-56
2022/11/21 04:40:05;;;;;;;;;4.00;1.75;;;;;19.07;41.18;100270.56;5056199;28;45545;-56
2022/11/21 04:42:30;;;;;;;;;2.00;2.00;;;;;19.05;41.24;100256.69;5059535;28;45304;-55
2022/11/21 04:44:55;;;;;;;;;1.00;1.00;;;;;19.09;41.31;100258.22;5059089;28;52535;-56
2022/11/21 04:47:21;;;;;;;;;3.75;3.00;;;;;19.12;41.04;100252.78;5081945;28;45516;-55
2022/11/21 04:49:46;;;;;;;;;4.00;2.00;;;;;19.13;41.15;100243.09;5084863;28;45475;-56
2022/11/21 04:52:11;;;;;;;;;4.67;1.00;;;;;19.20;40.99;100238.34;5060327;28;57768;-56
2022/11/21 04:54:37;;;;;;;;;3.67;1.00;;;;;19.24;40.96;100229.31;5058919;28;47524;-56
2022/11/21 04:57:02;;;;;;;;;3.00;2.00;;;;;19.24;41.03;100219.69;5059643;28;45465;-56
2022/11/21 04:59:27;;;;;;;;;4.00;2.25;;;;;19.32;40.81;100227.09;5059033;28;46003;-56
2022/11/21 05:01:53;;;;;;;;;2.50;2.00;;;;;19.36;40.97;100219.88;5058884;28;45464;-56
2022/11/21 05:04:18;;;;;;;;;4.00;2.25;;;;;19.38;40.90;100213.59;5059584;28;45322;-56
2022/11/21 05:06:43;;;;;;;;;4.50;1.75;;;;;19.39;40.98;100207.41;5059977;28;45521;-56
2022/11/21 05:09:08;;;;;;;;;1.00;1.00;;;;;19.46;41.28;100208.69;5060420;28;63517;-56
2022/11/21 05:14:18;;;;;;;;;4.50;1.75;;;;;19.54;40.77;100194.28;5083203;28;45220;-56
2022/11/21 05:16:43;;;;;;;;;2.00;2.00;;;;;19.54;41.33;100183.75;5084065;28;44925;-55
2022/11/21 05:19:09;;;;;;;;;1.00;1.00;;;;;19.59;40.52;100189.56;5074791;28;61309;-56
2022/11/21 05:21:34;;;;;;;;;1.25;1.25;;;;;19.61;40.43;100183.28;5072373;28;45268;-55
2022/11/21 05:23:59;;;;;;;;;2.50;2.50;;;;;19.62;41.06;100186.75;5067954;28;45360;-56
2022/11/21 05:26:25;;;;;;;;;1.50;1.50;;;;;19.66;41.07;100185.63;5071519;28;45185;-55
2022/11/21 05:28:50;;;;;;;;;3.75;2.00;;;;;19.68;40.78;100191.59;5065317;28;47746;-55
2022/11/21 05:31:15;;;;;;;;;3.00;1.00;;;;;19.68;41.07;100193.41;5062589;28;45419;-56
2022/11/21 05:33:41;;;;;;;;;2.50;1.50;;;;;19.71;41.09;100201.94;5076759;28;45429;-56
2022/11/21 05:36:06;;;;;;;;;2.25;2.25;;;;;19.73;40.70;100201.88;5076714;28;48551;-56
2022/11/21 05:38:31;;;;;;;;;2.00;2.00;;;;;19.71;40.86;100186.16;5082512;28;58216;-56
2022/11/21 05:40:56;;;;;;;;;3.00;3.00;;;;;19.75;40.95;100197.34;5083943;28;66098;-56
2022/11/21 05:46:06;;;;;;;;;1.75;1.75;;;;;19.75;40.68;100182.41;5066220;28;45417;-56
2022/11/21 05:48:33;;;;;;;;;1.50;1.50;;;;;19.72;40.88;100172.09;5060121;28;46093;-56
2022/11/21 05:50:58;;;;;;;;;2.75;1.25;;;;;19.75;40.85;100171.91;5058811;28;45285;-56
2022/11/21 05:53:23;;;;;;;;;2.50;1.50;;;;;19.74;40.83;100162.31;5064040;28;45354;-56
2022/11/21 05:55:49;;;;;;;;;3.50;2.00;;;;;19.74;40.38;100151.81;5059322;28;46004;-56
2022/11/21 05:58:14;;;;;;;;;3.00;1.75;;;;;19.74;40.49;100154.44;5059355;28;46125;-56
2022/11/21 06:00:40;;;;;;;;;2.00;2.00;;;;;19.75;40.70;100144.75;5059974;28;45295;-56
2022/11/21 06:05:49;;;;;;;;;3.75;2.00;;;;;19.75;40.28;100140.34;5063374;28;45382;-56
2022/11/21 06:08:15;;;;;;;;;2.00;2.00;;;;;19.75;40.38;100135.09;5077277;28;45623;-57
2022/11/21 06:10:40;;;;;;;;;2.50;1.50;;;;;19.73;40.76;100121.19;5064900;28;45312;-56
2022/11/21 06:13:20;;;;;;;;;2.00;2.00;;;;;19.75;40.55;100113.19;5058759;28;45232;-56
2022/11/21 06:16:10;;;;;;;;;2.00;2.00;;;;;19.75;40.34;100103.53;5058300;28;45402;-56
2022/11/21 06:18:40;;;;;;;;;3.00;1.75;;;;;19.74;40.68;100091.34;5057727;28;46375;-56
2022/11/21 06:21:14;;;;;;;;;2.50;2.00;;;;;19.73;40.18;100081.75;5056609;28;45816;-55
2022/11/21 06:23:39;;;;;;;;;2.00;2.00;;;;;19.74;40.44;100085.22;5057748;28;45462;-54
2022/11/21 06:26:08;;;;;;;;;1.50;1.50;;;;;19.70;40.60;100084.56;5058153;28;45402;-56
2022/11/21 06:28:36;;;;;;;;;3.00;2.00;;;;;19.71;40.07;100085.44;5057136;28;48557;-56
2022/11/21 06:31:12;;;;;;;;;2.25;2.25;;;;;19.70;40.71;100089.84;5057331;28;45663;-54
2022/11/21 06:33:39;;;;;;;;;2.00;2.00;;;;;19.71;40.60;100077.53;5057970;28;45331;-55
2022/11/21 06:36:07;;;;;;;;;2.75;2.00;;;;;19.70;40.55;100073.22;5057613;28;45450;-55
2022/11/21 06:38:33;;;;;;;;;2.50;2.50;;;;;19.70;40.53;100074.06;5055870;28;48645;-56
2022/11/21 06:41:07;;;;;;;;;3.00;3.00;;;;;19.69;40.57;100069.75;5056997;28;46042;-54
2022/11/21 06:43:32;;;;;;;;;3.25;2.00;;;;;19.70;40.72;100073.22;5057046;28;45492;-55
2022/11/21 06:45:58;;;;;;;;;4.75;2.00;;;;;19.69;40.11;100063.66;5056985;28;45489;-56
2022/11/21 06:48:24;;;;;;;;;1.25;1.25;;;;;19.67;40.48;100058.50;5057193;28;46287;-55
2022/11/21 06:50:50;;;;;;;;;1.75;1.75;;;;;19.67;40.46;100069.03;5058327;28;45256;-54
2022/11/21 06:53:15;;;;;;;;;3.25;2.75;;;;;19.67;40.72;100063.75;5078453;28;45288;-56
2022/11/21 06:55:40;;;;;;;;;2.00;2.00;;;;;19.64;40.21;100048.19;5061451;28;45344;-56
2022/11/21 06:58:06;;;;;;;;;1.50;1.00;;;;;19.65;40.54;100041.97;5057391;28;46119;-56
2022/11/21 07:00:31;;;;;;;;;3.75;1.75;;;;;19.64;40.60;100032.41;5056835;28;45299;-55
2022/11/21 07:03:01;;;;;;;;;3.00;3.00;;;;;19.64;40.51;100016.63;5059181;28;45367;-56
2022/11/21 07:05:26;;;;;;;;;2.75;2.00;;;;;19.63;40.22;100015.78;5058257;28;45314;-57
2022/11/21 07:07:58;;;;;;;;;2.00;2.00;;;;;19.63;40.42;100007.88;5056207;28;47163;-56
2022/11/21 07:10:23;;;;;;;;;2.00;2.00;;;;;19.51;40.38;99971.91;5057668;28;45329;-56
2022/11/21 07:15:32;;;;;;;;;2.50;2.50;;;;;19.62;40.23;99984.34;5057595;28;45291;-57
2022/11/21 07:17:58;;;;;;;;;4.00;2.50;;;;;19.58;40.75;99975.81;5058168;28;65563;-55
2022/11/21 07:20:23;;;;;;;;;3.25;2.75;;;;;19.60;40.67;99970.44;5077980;28;44677;-56
2022/11/21 07:22:53;;;;;;;;;2.67;2.67;;;;;19.59;40.39;99966.13;5072620;28;59263;-59
2022/11/21 07:25:18;;;;;;;;;3.50;2.00;;;;;19.55;40.19;99954.97;5059870;28;45450;-56
2022/11/21 07:27:43;;;;;;;;;3.00;3.00;;;;;19.56;40.31;99951.41;5058098;28;45305;-56
2022/11/21 07:30:09;;;;;;;;;3.00;2.50;;;;;19.57;40.44;99946.97;5058018;28;46802;-56
2022/11/21 07:32:35;;;;;;;;;3.00;3.00;;;;;19.56;40.31;99945.31;5057680;28;45184;-56
2022/11/21 07:35:00;;;;;;;;;3.25;3.00;;;;;19.54;40.39;99926.19;5058380;28;45588;-56
2022/11/21 07:37:26;;;;;;;;;5.00;4.00;;;;;19.53;39.99;99927.13;5057213;28;59255;-55
2022/11/21 07:39:51;;;;;;;;;5.50;3.00;;;;;19.54;39.95;99936.69;5067585;28;45174;-56
2022/11/21 07:42:16;;;;;;;;;5.00;2.00;;;;;19.52;40.34;99922.81;5074219;28;45288;-55
2022/11/21 07:44:42;;;;;;;;;5.75;4.00;;;;;19.53;40.70;99932.38;5075875;28;45556;-56
2022/11/21 07:47:07;;;;;;;;;3.00;3.00;;;;;19.52;40.04;99928.06;5064674;28;54014;-55
2022/11/21 07:49:32;;;;;;;;;3.00;3.00;;;;;19.50;40.52;99919.44;5076617;28;47062;-55
2022/11/21 07:51:58;;;;;;;;;6.00;5.00;;;;;19.49;39.98;99913.34;5075375;28;45227;-56
2022/11/21 07:54:23;;;;;;;;;5.00;3.25;;;;;19.51;40.40;99907.97;5077324;28;45211;-55
2022/11/21 07:56:48;;;;;;;;;5.50;4.75;;;;;19.50;40.56;99898.41;5080143;28;46023;-55
2022/11/21 07:59:14;;;;;;;;;4.50;3.75;;;;;19.46;40.40;99876.75;5070133;28;45412;-55
2022/11/21 08:01:39;;;;;;;;;5.75;4.25;;;;;19.47;39.94;99866.13;5059586;28;45714;-55
2022/11/21 08:04:04;;;;;;;;;4.00;4.00;;;;;19.47;40.50;99860.84;5058273;28;45580;-55
2022/11/21 08:06:29;;;;;;;;;5.00;4.25;;;;;19.45;40.53;99849.63;5059253;28;49365;-55
2022/11/21 08:08:55;;;;;;;;;4.33;4.00;;;;;19.43;40.02;99840.16;5057830;28;59736;-55
2022/11/21 08:11:20;;;;;;;;;5.75;4.00;;;;;19.46;40.29;99850.47;5058362;28;45349;-55
2022/11/21 08:13:46;;;;;;;;;4.00;4.00;;;;;19.44;40.13;99853.19;5057281;28;45377;-56
2022/11/21 08:16:11;;;;;;;;;5.00;4.00;;;;;19.43;40.45;99853.28;5059689;28;45856;-55
2022/11/21 08:18:37;;;;;;;;;4.50;3.25;;;;;19.42;40.14;99854.22;5060163;28;47723;-56
2022/11/21 08:21:03;;;;;;;;;10.50;6.00;;;;;19.42;39.95;99848.97;5060429;28;45387;-55
2022/11/21 08:23:30;;;;;;;;;7.00;4.00;;;;;19.38;39.91;99844.88;5060688;28;45587;-54
2022/11/21 08:25:55;;;;;;;;;6.25;5.25;;;;;19.38;40.61;99840.44;5059048;28;48269;-55
2022/11/21 08:28:20;;;;;;;;;7.00;4.33;;;;;19.40;40.21;99843.00;5062751;28;61174;-55
2022/11/21 08:30:46;;;;;;;;;7.50;5.00;;;;;19.38;40.65;99845.72;5061172;28;50927;-54
2022/11/21 08:33:11;;;;;;;;;3.25;3.25;;;;;19.39;40.08;99855.28;5068646;28;45202;-59
